Time;durP1;ratioP1;P1;durP2;ratioP2;P2;SDS_P1;SDS_P2;PMS_P1;PMS_P2;Temp;Humidity;BMP_temperature;BMP_pressure;BME280_temperature;BME280_humidity;BME280_pressure;Samples;Min_cycle;Max_cycle;Signal;HPM_P1;HPM_P2
2022/12/01 00:01:10;;;;;;;0.00;0.00;;;8.00;99.90;;;;;;5064368;28;20195;-81
2022/12/01 00:03:36;;;;;;;0.10;0.10;;;8.00;99.90;;;;;;5065552;28;20185;-81
2022/12/01 00:06:10;;;;;;;0.10;0.10;;;8.10;99.90;;;;;;5064373;28;20228;-81
2022/12/01 00:08:36;;;;;;;0.10;0.10;;;7.90;99.90;;;;;;5082487;28;20187;-80
2022/12/01 00:11:07;;;;;;;0.10;0.10;;;7.80;99.90;;;;;;5066326;28;20185;-81
2022/12/01 00:13:33;;;;;;;0.10;0.10;;;7.80;99.90;;;;;;5065889;28;20218;-81
2022/12/01 00:16:17;;;;;;;0.00;0.00;;;7.80;99.90;;;;;;5065413;28;20314;-81
2022/12/01 00:18:43;;;;;;;0.10;0.10;;;7.80;99.90;;;;;;5064005;28;20275;-81
2022/12/01 00:21:16;;;;;;;0.03;0.03;;;7.80;99.90;;;;;;5065178;28;20685;-81
2022/12/01 00:23:43;;;;;;;0.00;0.00;;;7.70;99.90;;;;;;5066134;28;20228;-81
2022/12/01 00:26:08;;;;;;;0.10;0.10;;;7.80;99.90;;;;;;5064517;28;20208;-81
2022/12/01 00:28:34;;;;;;;0.10;0.10;;;7.90;99.90;;;;;;5065721;28;20190;-80
2022/12/01 00:30:59;;;;;;;0.10;0.10;;;7.90;99.90;;;;;;5067001;28;20201;-81
2022/12/01 00:33:25;;;;;;;0.10;0.10;;;7.80;99.90;;;;;;5066179;28;20241;-81
2022/12/01 00:35:57;;;;;;;0.10;0.10;;;7.70;99.90;;;;;;5065548;28;20205;-81
2022/12/01 00:38:23;;;;;;;0.10;0.10;;;7.70;99.90;;;;;;5080947;28;20181;-81
2022/12/01 00:40:48;;;;;;;0.10;0.10;;;7.80;99.90;;;;;;5064471;28;21249;-81
2022/12/01 00:43:14;;;;;;;0.10;0.10;;;7.40;99.90;;;;;;5063515;28;20599;-81
2022/12/01 00:45:39;;;;;;;0.10;0.10;;;7.40;99.90;;;;;;5064409;28;20205;-81
2022/12/01 00:48:05;;;;;;;0.10;0.10;;;7.10;99.90;;;;;;5064171;28;20197;-81
2022/12/01 00:50:30;;;;;;;0.10;0.10;;;7.00;99.90;;;;;;5063148;28;20235;-81
2022/12/01 00:52:56;;;;;;;0.10;0.10;;;6.90;99.90;;;;;;5064155;28;20208;-81
2022/12/01 00:55:21;;;;;;;0.10;0.10;;;6.60;99.90;;;;;;5064502;28;20193;-81
2022/12/01 00:57:47;;;;;;;0.10;0.10;;;6.80;99.90;;;;;;5064571;28;20550;-81
2022/12/01 01:00:13;;;;;;;0.10;0.10;;;6.70;99.90;;;;;;5067406;28;20188;-81
2022/12/01 01:02:39;;;;;;;0.10;0.10;;;6.50;99.90;;;;;;5066033;28;20189;-81
2022/12/01 01:05:05;;;;;;;0.10;0.10;;;6.50;99.90;;;;;;5067086;28;20217;-81
2022/12/01 01:07:31;;;;;;;0.10;0.10;;;6.50;99.90;;;;;;5065775;28;20181;-81
2022/12/01 01:09:56;;;;;;;0.10;0.10;;;6.50;99.90;;;;;;5065890;28;20192;-80
2022/12/01 01:12:22;;;;;;;0.10;0.10;;;6.60;99.90;;;;;;5069339;28;20208;-81
2022/12/01 01:14:47;;;;;;;0.10;0.10;;;6.40;99.90;;;;;;5076758;28;20224;-81
2022/12/01 01:17:13;;;;;;;0.10;0.10;;;6.20;99.90;;;;;;5076632;28;20195;-81
2022/12/01 01:19:38;;;;;;;0.10;0.10;;;6.30;99.90;;;;;;5075803;28;20200;-81
2022/12/01 01:22:04;;;;;;;0.10;0.10;;;6.30;99.90;;;;;;5076200;28;20185;-81
2022/12/01 01:24:30;;;;;;;0.10;0.10;;;6.40;99.90;;;;;;5075818;28;20258;-80
2022/12/01 01:26:55;;;;;;;0.10;0.10;;;6.40;99.90;;;;;;5069603;28;20185;-80
2022/12/01 01:29:21;;;;;;;0.10;0.10;;;6.40;99.90;;;;;;5069860;28;20211;-80
2022/12/01 01:31:46;;;;;;;0.03;0.03;;;6.40;99.90;;;;;;5069303;28;20256;-81
2022/12/01 01:34:12;;;;;;;0.10;0.10;;;6.40;99.90;;;;;;5068293;28;20273;-80
2022/12/01 01:36:37;;;;;;;0.10;0.10;;;6.50;99.90;;;;;;5067006;28;20291;-80
2022/12/01 01:39:03;;;;;;;0.10;0.10;;;6.30;99.90;;;;;;5068408;28;20209;-80
2022/12/01 01:41:29;;;;;;;0.10;0.10;;;6.00;99.90;;;;;;5068940;28;20255;-80
2022/12/01 01:43:57;;;;;;;0.10;0.10;;;5.90;99.90;;;;;;5069133;28;20200;-80
2022/12/01 01:46:28;;;;;;;0.10;0.10;;;5.70;99.90;;;;;;5066994;28;20213;-81
2022/12/01 01:49:00;;;;;;;0.10;0.10;;;5.80;99.90;;;;;;5067441;28;20192;-81
2022/12/01 01:51:35;;;;;;;0.00;0.00;;;5.80;99.90;;;;;;5065570;28;20191;-80
2022/12/01 01:54:09;;;;;;;0.10;0.10;;;5.80;99.90;;;;;;5068195;28;20221;-81
2022/12/01 01:56:36;;;;;;;0.00;0.00;;;5.70;99.90;;;;;;5066666;28;20187;-80
2022/12/01 01:59:02;;;;;;;0.10;0.10;;;5.40;99.90;;;;;;5067738;28;20553;-80
2022/12/01 02:01:28;;;;;;;0.00;0.00;;;5.50;99.90;;;;;;5067185;28;20193;-80
2022/12/01 02:03:54;;;;;;;0.10;0.10;;;5.40;99.90;;;;;;5066902;28;20192;-81
2022/12/01 02:06:22;;;;;;;0.10;0.10;;;5.20;99.90;;;;;;5065750;28;21317;-80
2022/12/01 02:08:48;;;;;;;0.10;0.10;;;5.20;99.90;;;;;;5064797;28;20275;-80
2022/12/01 02:11:23;;;;;;;0.10;0.10;;;5.20;99.90;;;;;;5066893;28;20188;-81
2022/12/01 02:14:21;;;;;;;0.07;0.07;;;5.30;99.90;;;;;;5065531;28;20273;-81
2022/12/01 02:16:51;;;;;;;0.00;0.00;;;5.30;99.90;;;;;;5064978;28;20227;-81
2022/12/01 02:19:26;;;;;;;0.10;0.10;;;5.50;99.90;;;;;;5067427;28;20191;-81
2022/12/01 02:22:04;;;;;;;0.10;0.10;;;5.30;99.90;;;;;;5065403;28;20192;-81
2022/12/01 02:25:07;;;;;;;0.10;0.10;;;5.30;99.90;;;;;;5066771;28;20220;-81
2022/12/01 02:27:53;;;;;;;0.10;0.10;;;5.40;99.90;;;;;;5065524;28;20630;-81
2022/12/01 02:30:36;;;;;;;0.20;0.20;;;5.40;99.90;;;;;;5063912;28;20239;-81
2022/12/01 02:33:27;;;;;;;0.10;0.10;;;5.50;99.90;;;;;;5064320;28;20207;-81
2022/12/01 02:36:22;;;;;;;0.00;0.00;;;5.50;99.90;;;;;;5065608;28;20305;-80
2022/12/01 02:38:53;;;;;;;0.10;0.10;;;5.40;99.90;;;;;;5065085;28;20270;-81
2022/12/01 02:41:26;;;;;;;0.10;0.10;;;5.50;99.90;;;;;;5080975;28;20288;-80
2022/12/01 02:44:10;;;;;;;0.10;0.10;;;5.70;99.90;;;;;;5064789;28;20192;-81
2022/12/01 02:46:45;;;;;;;0.10;0.10;;;5.70;99.90;;;;;;5063555;28;20185;-81
2022/12/01 02:49:20;;;;;;;0.10;0.10;;;5.80;99.90;;;;;;5064526;28;20230;-81
2022/12/01 02:51:47;;;;;;;0.00;0.00;;;5.80;99.90;;;;;;5062845;28;20627;-81
2022/12/01 02:54:14;;;;;;;0.10;0.10;;;5.60;99.90;;;;;;5064470;28;20232;-81
2022/12/01 02:56:42;;;;;;;0.03;0.03;;;5.70;99.90;;;;;;5063385;28;20271;-81
2022/12/01 02:59:10;;;;;;;0.10;0.10;;;5.70;99.90;;;;;;5063210;28;20201;-81
2022/12/01 03:02:04;;;;;;;0.10;0.10;;;5.60;99.90;;;;;;5064125;28;20216;-81
2022/12/01 03:05:00;;;;;;;0.10;0.10;;;5.50;99.90;;;;;;5065158;28;20277;-80
2022/12/01 03:07:32;;;;;;;0.10;0.10;;;5.50;99.90;;;;;;5064216;28;20181;-80
2022/12/01 03:10:29;;;;;;;0.00;0.00;;;5.50;99.90;;;;;;5065479;28;20206;-81
2022/12/01 03:13:09;;;;;;;0.60;0.60;;;5.50;99.90;;;;;;5065203;28;20223;-81
2022/12/01 03:15:38;;;;;;;0.10;0.10;;;5.50;99.90;;;;;;5066218;28;20296;-81
2022/12/01 03:18:34;;;;;;;0.10;0.10;;;5.60;99.90;;;;;;5066017;28;20238;-81
2022/12/01 03:21:11;;;;;;;0.00;0.00;;;5.50;99.90;;;;;;5065024;28;20198;-81
2022/12/01 03:23:44;;;;;;;0.03;0.03;;;5.50;99.90;;;;;;5065405;28;20190;-81
2022/12/01 03:26:15;;;;;;;0.10;0.10;;;5.40;99.90;;;;;;5065479;28;20211;-81
2022/12/01 03:28:47;;;;;;;0.10;0.10;;;5.40;99.90;;;;;;5063652;28;20180;-81
2022/12/01 03:31:18;;;;;;;0.10;0.10;;;5.40;99.90;;;;;;5065822;28;21164;-81
2022/12/01 03:33:56;;;;;;;0.10;0.10;;;5.40;99.90;;;;;;5065259;28;20248;-81
2022/12/01 03:36:38;;;;;;;0.10;0.10;;;5.40;99.90;;;;;;5084133;28;20294;-80
2022/12/01 03:39:10;;;;;;;0.10;0.10;;;5.40;99.90;;;;;;5067448;28;20809;-81
2022/12/01 03:41:52;;;;;;;0.10;0.10;;;5.50;99.90;;;;;;5066930;28;20673;-81
2022/12/01 03:44:26;;;;;;;0.10;0.10;;;5.60;99.90;;;;;;5067373;28;20671;-81
2022/12/01 03:47:08;;;;;;;0.10;0.10;;;5.60;99.90;;;;;;5067094;28;20184;-81
2022/12/01 03:49:35;;;;;;;0.10;0.10;;;5.60;99.90;;;;;;5066989;28;20267;-80
2022/12/01 03:52:09;;;;;;;0.00;0.00;;;5.50;99.90;;;;;;5065341;28;20202;-80
2022/12/01 03:54:49;;;;;;;0.10;0.10;;;5.40;99.90;;;;;;5067004;28;20208;-81
2022/12/01 03:57:20;;;;;;;0.10;0.10;;;5.40;99.90;;;;;;5065740;28;20179;-81
2022/12/01 03:59:46;;;;;;;0.10;0.10;;;5.30;99.90;;;;;;5066180;28;20216;-81
2022/12/01 04:02:12;;;;;;;0.10;0.10;;;5.30;99.90;;;;;;5066370;28;20195;-81
2022/12/01 04:04:38;;;;;;;0.10;0.10;;;5.60;99.90;;;;;;5064914;28;20203;-81
2022/12/01 04:07:03;;;;;;;0.00;0.00;;;5.70;99.90;;;;;;5065547;28;20192;-80
2022/12/01 04:09:29;;;;;;;0.00;0.00;;;5.80;99.90;;;;;;5066178;28;20237;-81
2022/12/01 04:14:39;;;;;;;0.10;0.10;;;5.90;99.90;;;;;;5068987;28;20227;-81
2022/12/01 04:17:04;;;;;;;0.10;0.10;;;5.80;99.90;;;;;;5065857;28;20189;-81
2022/12/01 04:19:30;;;;;;;0.10;0.10;;;5.90;99.90;;;;;;5065704;28;20203;-80
2022/12/01 04:21:56;;;;;;;0.10;0.10;;;5.60;99.90;;;;;;5064676;28;20251;-80
2022/12/01 04:24:21;;;;;;;0.10;0.10;;;5.50;99.90;;;;;;5066063;28;20212;-81
2022/12/01 04:26:47;;;;;;;0.10;0.10;;;5.60;99.90;;;;;;5065497;28;20262;-81
2022/12/01 04:29:13;;;;;;;0.00;0.00;;;5.80;99.90;;;;;;5066337;28;20185;-81
2022/12/01 04:31:38;;;;;;;0.10;0.10;;;6.00;99.90;;;;;;5065364;28;20276;-81
2022/12/01 04:34:04;;;;;;;0.10;0.10;;;6.20;99.90;;;;;;5065234;28;20217;-80
2022/12/01 04:36:32;;;;;;;0.10;0.10;;;6.30;99.90;;;;;;5064712;28;20588;-81
2022/12/01 04:38:58;;;;;;;0.10;0.10;;;6.20;99.90;;;;;;5064931;28;20237;-81
2022/12/01 04:41:23;;;;;;;0.10;0.10;;;6.40;99.90;;;;;;5066401;28;20731;-81
2022/12/01 04:43:52;;;;;;;0.10;0.10;;;6.50;99.90;;;;;;5064740;28;20266;-80
2022/12/01 04:46:18;;;;;;;0.10;0.10;;;6.30;99.90;;;;;;5065532;28;20209;-82
2022/12/01 04:48:43;;;;;;;0.10;0.10;;;6.30;99.90;;;;;;5065990;28;20194;-81
2022/12/01 04:51:09;;;;;;;0.10;0.10;;;6.10;99.90;;;;;;5063850;28;20296;-81
2022/12/01 04:53:35;;;;;;;0.10;0.10;;;6.20;99.90;;;;;;5064295;28;20242;-81
2022/12/01 04:56:01;;;;;;;0.10;0.10;;;6.10;99.90;;;;;;5064740;28;20584;-81
2022/12/01 04:58:36;;;;;;;0.10;0.10;;;6.10;99.90;;;;;;5065312;28;20189;-80
2022/12/01 05:01:07;;;;;;;0.10;0.10;;;6.20;99.90;;;;;;5067920;28;20181;-81
2022/12/01 05:03:41;;;;;;;0.10;0.10;;;6.40;99.90;;;;;;5066525;28;20201;-81
2022/12/01 05:06:16;;;;;;;0.10;0.10;;;6.50;99.90;;;;;;5066374;28;20224;-81
2022/12/01 05:08:41;;;;;;;0.10;0.10;;;6.50;99.90;;;;;;5064964;28;20253;-81
2022/12/01 05:11:09;;;;;;;0.10;0.10;;;6.50;99.90;;;;;;5067315;28;20193;-81
2022/12/01 05:13:42;;;;;;;0.10;0.10;;;6.30;99.90;;;;;;5067260;28;20217;-81
2022/12/01 05:16:20;;;;;;;0.10;0.10;;;6.30;99.90;;;;;;5066396;28;20223;-81
2022/12/01 05:20:55;;;;;;;0.10;0.10;;;6.30;99.90;;;;;;5065499;28;20610;-81
2022/12/01 05:21:40;;;;;;;0.10;0.10;;;6.40;99.90;;;;;;5066544;28;20194;-81
2022/12/01 05:24:07;;;;;;;0.10;0.10;;;6.40;99.90;;;;;;5084118;28;20188;-81
2022/12/01 05:26:33;;;;;;;0.10;0.10;;;6.50;99.90;;;;;;5066474;28;20271;-81
2022/12/01 05:28:58;;;;;;;0.10;0.10;;;6.60;99.90;;;;;;5067179;28;20537;-81
2022/12/01 05:31:24;;;;;;;0.10;0.10;;;6.60;99.90;;;;;;5064839;28;20527;-81
2022/12/01 05:33:49;;;;;;;0.07;0.07;;;6.60;99.90;;;;;;5065482;28;20665;-81
2022/12/01 05:36:15;;;;;;;0.10;0.10;;;6.60;99.90;;;;;;5062090;28;20209;-81
2022/12/01 05:38:40;;;;;;;0.10;0.10;;;6.60;99.90;;;;;;5064480;28;20208;-81
2022/12/01 05:41:06;;;;;;;0.10;0.10;;;6.60;99.90;;;;;;5063159;28;20189;-80
2022/12/01 05:43:32;;;;;;;0.10;0.10;;;6.60;99.90;;;;;;5065038;28;20234;-81
2022/12/01 05:45:57;;;;;;;0.10;0.10;;;6.50;99.90;;;;;;5064157;28;20205;-80
2022/12/01 05:48:23;;;;;;;0.10;0.10;;;6.60;99.90;;;;;;5063348;28;20207;-81
2022/12/01 05:50:49;;;;;;;0.00;0.00;;;6.60;99.90;;;;;;5062681;28;20193;-81
2022/12/01 05:53:15;;;;;;;0.00;0.00;;;6.60;99.90;;;;;;5063308;28;20220;-81
2022/12/01 05:55:41;;;;;;;0.10;0.10;;;6.60;99.90;;;;;;5062515;28;20211;-80
2022/12/01 05:58:07;;;;;;;0.10;0.10;;;6.60;99.90;;;;;;5063738;28;20192;-85
2022/12/01 06:00:33;;;;;;;0.10;0.10;;;6.60;99.90;;;;;;5066641;28;20192;-81
2022/12/01 06:02:58;;;;;;;0.10;0.10;;;6.60;99.90;;;;;;5065986;28;20208;-82
2022/12/01 06:05:24;;;;;;;0.10;0.10;;;6.60;99.90;;;;;;5060938;28;20255;-81
2022/12/01 06:07:49;;;;;;;0.10;0.10;;;6.50;99.90;;;;;;5064294;28;20291;-81
2022/12/01 06:10:15;;;;;;;0.10;0.10;;;6.60;99.90;;;;;;5063575;28;20211;-81
2022/12/01 06:12:41;;;;;;;0.00;0.00;;;6.60;99.90;;;;;;5064227;28;20305;-81
2022/12/01 06:15:07;;;;;;;0.10;0.10;;;6.60;99.90;;;;;;5063691;28;20209;-81
2022/12/01 06:17:33;;;;;;;0.10;0.10;;;6.60;99.90;;;;;;5063428;28;20538;-81
2022/12/01 06:19:59;;;;;;;0.10;0.10;;;6.50;99.90;;;;;;5063681;28;20243;-81
2022/12/01 06:22:25;;;;;;;0.10;0.10;;;6.60;99.90;;;;;;5064947;28;20188;-81
2022/12/01 06:24:50;;;;;;;0.10;0.10;;;6.50;99.90;;;;;;5063979;28;20212;-80
2022/12/01 06:27:16;;;;;;;0.10;0.10;;;6.40;99.90;;;;;;5065404;28;20202;-79
2022/12/01 06:29:42;;;;;;;0.03;0.03;;;6.50;99.90;;;;;;5062182;28;20284;-81
2022/12/01 06:32:07;;;;;;;0.10;0.10;;;6.40;99.90;;;;;;5063603;28;20283;-79
2022/12/01 06:34:33;;;;;;;0.10;0.10;;;6.40;99.90;;;;;;5062343;28;20587;-80
2022/12/01 06:36:58;;;;;;;0.77;0.77;;;6.40;99.90;;;;;;5064046;28;20189;-81
2022/12/01 06:39:24;;;;;;;0.10;0.10;;;6.40;99.90;;;;;;5064625;28;20181;-81
2022/12/01 06:41:49;;;;;;;0.10;0.10;;;6.40;99.90;;;;;;5064088;28;20241;-81
2022/12/01 06:44:15;;;;;;;0.10;0.10;;;6.30;99.90;;;;;;5064824;28;20219;-81
2022/12/01 06:46:41;;;;;;;0.10;0.10;;;6.30;99.90;;;;;;5065366;28;20208;-80
2022/12/01 06:49:10;;;;;;;0.10;0.10;;;6.10;99.90;;;;;;5062965;28;20223;-81
2022/12/01 06:51:36;;;;;;;0.10;0.10;;;5.80;99.90;;;;;;5079061;28;20735;-81
2022/12/01 06:54:02;;;;;;;0.10;0.10;;;5.80;99.90;;;;;;5064236;28;20211;-81
2022/12/01 06:56:27;;;;;;;0.10;0.10;;;5.70;99.90;;;;;;5064407;28;20204;-80
2022/12/01 06:58:53;;;;;;;0.10;0.10;;;5.80;99.90;;;;;;5064160;28;20588;-80
2022/12/01 07:01:18;;;;;;;0.10;0.10;;;5.90;99.90;;;;;;5064180;28;20749;-81
2022/12/01 07:03:49;;;;;;;0.00;0.00;;;5.60;99.90;;;;;;5065616;28;20188;-81
2022/12/01 07:06:15;;;;;;;0.10;0.10;;;5.50;99.90;;;;;;5063946;28;20283;-80
2022/12/01 07:08:40;;;;;;;0.10;0.10;;;5.60;99.90;;;;;;5068115;28;20192;-80
2022/12/01 07:11:08;;;;;;;0.10;0.10;;;5.40;99.90;;;;;;5069510;28;20825;-81
2022/12/01 07:13:34;;;;;;;0.10;0.10;;;5.20;99.90;;;;;;5067642;28;20205;-80
2022/12/01 07:16:04;;;;;;;0.10;0.10;;;5.00;99.90;;;;;;5067231;28;20270;-81
2022/12/01 07:18:31;;;;;;;0.10;0.10;;;5.10;99.90;;;;;;5068267;28;20184;-80
2022/12/01 07:21:04;;;;;;;0.10;0.10;;;5.10;99.90;;;;;;5068788;28;20187;-80
2022/12/01 07:23:30;;;;;;;0.00;0.00;;;5.00;99.90;;;;;;5069873;28;20189;-81
2022/12/01 07:26:11;;;;;;;0.07;0.07;;;4.90;99.90;;;;;;5068140;28;21814;-81
2022/12/01 07:28:36;;;;;;;0.10;0.10;;;5.00;99.90;;;;;;5066136;28;20208;-81
2022/12/01 07:31:07;;;;;;;0.10;0.10;;;5.30;99.90;;;;;;5066987;28;20750;-81
2022/12/01 07:33:34;;;;;;;0.10;0.10;;;5.30;99.90;;;;;;5068408;28;20207;-81
2022/12/01 07:36:00;;;;;;;0.10;0.10;;;5.40;99.90;;;;;;5065595;28;20257;-80
2022/12/01 07:38:29;;;;;;;0.10;0.10;;;5.20;99.90;;;;;;5066907;28;20188;-80
2022/12/01 07:41:00;;;;;;;0.10;0.10;;;5.40;99.90;;;;;;5068665;28;20192;-81
2022/12/01 07:43:25;;;;;;;0.10;0.10;;;5.10;99.90;;;;;;5069411;28;20242;-81
2022/12/01 07:45:51;;;;;;;0.00;0.00;;;5.10;99.90;;;;;;5080109;28;20276;-81
2022/12/01 07:48:16;;;;;;;0.10;0.10;;;5.20;99.90;;;;;;5081661;28;20248;-81
2022/12/01 07:50:42;;;;;;;0.10;0.10;;;5.20;99.90;;;;;;5082158;28;20211;-84
2022/12/01 07:53:07;;;;;;;0.10;0.10;;;5.30;99.90;;;;;;5084135;28;20300;-84
2022/12/01 07:55:33;;;;;;;0.10;0.10;;;5.20;99.90;;;;;;5084462;28;20836;-84
2022/12/01 07:57:59;;;;;;;0.10;0.10;;;5.30;99.90;;;;;;5069646;28;20211;-81
2022/12/01 08:00:25;;;;;;;0.00;0.00;;;5.30;99.90;;;;;;5068332;28;20676;-80
2022/12/01 08:02:51;;;;;;;0.10;0.10;;;5.20;99.90;;;;;;5073376;28;20183;-79
2022/12/01 08:05:16;;;;;;;0.10;0.10;;;5.00;99.90;;;;;;5070687;28;22046;-81
2022/12/01 08:07:42;;;;;;;0.10;0.10;;;4.80;99.90;;;;;;5068191;28;20616;-81
2022/12/01 08:10:08;;;;;;;0.10;0.10;;;5.00;99.90;;;;;;5072298;28;20188;-81
2022/12/01 08:12:33;;;;;;;0.10;0.10;;;4.70;99.90;;;;;;5071740;28;20218;-82
2022/12/01 08:14:59;;;;;;;0.00;0.00;;;4.90;99.90;;;;;;5073543;28;20690;-81
2022/12/01 08:17:25;;;;;;;0.10;0.10;;;4.80;99.90;;;;;;5073630;28;20194;-81
2022/12/01 08:19:51;;;;;;;0.10;0.10;;;4.60;99.90;;;;;;5070182;28;20187;-81
2022/12/01 08:22:17;;;;;;;0.10;0.10;;;4.60;99.90;;;;;;5071381;28;20197;-81
2022/12/01 08:24:42;;;;;;;0.10;0.10;;;4.80;99.90;;;;;;5069770;28;20298;-81
2022/12/01 08:27:08;;;;;;;0.10;0.10;;;4.70;99.90;;;;;;5071191;28;20188;-82
2022/12/01 08:29:34;;;;;;;0.00;0.00;;;4.70;99.90;;;;;;5071282;28;20185;-81
2022/12/01 08:32:00;;;;;;;0.30;0.30;;;4.70;99.90;;;;;;5070692;28;20200;-81
2022/12/01 08:34:26;;;;;;;0.10;0.10;;;4.60;99.90;;;;;;5070361;28;20212;-81
2022/12/01 08:36:51;;;;;;;0.00;0.00;;;4.80;99.90;;;;;;5070147;28;20185;-81
2022/12/01 08:39:17;;;;;;;0.00;0.00;;;4.60;99.90;;;;;;5070172;28;20183;-81
2022/12/01 08:41:42;;;;;;;0.00;0.00;;;4.40;99.90;;;;;;5069231;28;20198;-81
2022/12/01 08:44:09;;;;;;;0.10;0.10;;;4.50;99.90;;;;;;5070018;28;20196;-81
2022/12/01 08:46:35;;;;;;;0.67;0.67;;;4.50;99.90;;;;;;5070652;28;20201;-81
2022/12/01 08:49:05;;;;;;;0.70;0.70;;;4.50;99.90;;;;;;5070642;28;20185;-81
2022/12/01 08:51:31;;;;;;;0.10;0.10;;;4.50;99.90;;;;;;5070667;28;20179;-81
2022/12/01 08:53:58;;;;;;;0.00;0.00;;;4.60;99.90;;;;;;5069003;28;20319;-80
2022/12/01 08:56:30;;;;;;;0.10;0.10;;;4.70;99.90;;;;;;5067687;28;20211;-80
2022/12/01 08:58:56;;;;;;;0.00;0.00;;;4.50;99.90;;;;;;5068198;28;20184;-81
2022/12/01 09:01:21;;;;;;;0.10;0.10;;;4.50;99.90;;;;;;5065794;28;20749;-80
2022/12/01 09:03:47;;;;;;;0.10;0.10;;;4.60;99.90;;;;;;5082255;28;20559;-82
2022/12/01 09:06:15;;;;;;;0.10;0.10;;;4.50;99.90;;;;;;5067504;28;20702;-82
2022/12/01 09:08:42;;;;;;;0.07;0.07;;;4.70;99.90;;;;;;5067397;28;20568;-81
2022/12/01 09:11:14;;;;;;;0.10;0.10;;;4.70;99.90;;;;;;5068074;28;20211;-82
2022/12/01 09:13:41;;;;;;;0.10;0.10;;;4.70;99.90;;;;;;5067124;28;20220;-81
2022/12/01 09:16:14;;;;;;;0.10;0.10;;;4.80;99.90;;;;;;5068350;28;20214;-81
2022/12/01 09:18:41;;;;;;;0.10;0.10;;;4.60;99.90;;;;;;5084666;28;20221;-82
2022/12/01 09:21:19;;;;;;;0.10;0.10;;;4.80;99.90;;;;;;5067554;28;20193;-82
2022/12/01 09:23:45;;;;;;;0.10;0.10;;;4.80;99.90;;;;;;5068210;28;20181;-82
2022/12/01 09:26:16;;;;;;;0.10;0.10;;;4.80;99.90;;;;;;5068506;28;20224;-82
2022/12/01 09:28:42;;;;;;;0.10;0.10;;;4.80;99.90;;;;;;5068451;28;20579;-81
2022/12/01 09:31:11;;;;;;;0.10;0.10;;;4.70;99.90;;;;;;5067896;28;20304;-82
2022/12/01 09:33:37;;;;;;;0.10;0.10;;;4.80;99.90;;;;;;5084796;28;20215;-81
2022/12/01 09:36:05;;;;;;;0.10;0.10;;;4.70;99.90;;;;;;5065779;28;20238;-81
2022/12/01 09:38:32;;;;;;;0.00;0.00;;;4.80;99.90;;;;;;5063677;28;20187;-82
2022/12/01 09:41:20;;;;;;;0.10;0.10;;;5.10;99.90;;;;;;5064610;28;21208;-82
2022/12/01 09:44:12;;;;;;;0.10;0.10;;;5.40;99.90;;;;;;5063700;28;20512;-81
2022/12/01 09:46:59;;;;;;;0.10;0.10;;;5.30;99.90;;;;;;5024754;28;20228;-84
2022/12/01 09:49:42;;;;;;;0.10;0.10;;;5.30;99.90;;;;;;5062144;28;20181;-82
2022/12/01 09:52:13;;;;;;;0.00;0.00;;;5.10;99.90;;;;;;5055804;28;20185;-82
2022/12/01 09:54:39;;;;;;;0.10;0.10;;;5.20;99.90;;;;;;5061272;28;20228;-81
2022/12/01 09:57:10;;;;;;;3.93;3.70;;;5.50;99.90;;;;;;5063226;28;20675;-81
2022/12/01 09:59:40;;;;;;;0.00;0.00;;;5.10;99.90;;;;;;5064011;28;20211;-81
2022/12/01 10:02:36;;;;;;;0.10;0.10;;;5.10;99.90;;;;;;5062509;28;20185;-81
2022/12/01 10:05:05;;;;;;;0.00;0.00;;;5.20;99.90;;;;;;5063626;28;20727;-80
2022/12/01 10:07:37;;;;;;;0.10;0.10;;;5.20;99.90;;;;;;5062841;28;20186;-81
2022/12/01 10:10:13;;;;;;;0.10;0.10;;;5.20;99.90;;;;;;5080848;28;20284;-81
2022/12/01 10:12:41;;;;;;;0.10;0.10;;;5.00;99.90;;;;;;5060873;28;20764;-81
2022/12/01 10:15:16;;;;;;;0.10;0.10;;;5.00;99.90;;;;;;5062634;28;20212;-82
2022/12/01 10:17:56;;;;;;;0.10;0.10;;;4.90;99.90;;;;;;5064026;28;20173;-82
2022/12/01 10:20:30;;;;;;;0.10;0.10;;;5.00;99.90;;;;;;5064668;28;20192;-82
2022/12/01 10:23:22;;;;;;;0.10;0.10;;;5.10;99.90;;;;;;5063135;28;20184;-82
2022/12/01 10:25:58;;;;;;;0.10;0.10;;;5.30;99.90;;;;;;5063517;28;20294;-82
2022/12/01 10:28:45;;;;;;;0.10;0.10;;;5.30;99.90;;;;;;5062781;28;20235;-82
2022/12/01 10:31:22;;;;;;;0.10;0.10;;;5.30;99.90;;;;;;5063521;28;21009;-83
2022/12/01 10:34:14;;;;;;;0.10;0.10;;;5.30;99.90;;;;;;5062281;28;20199;-83
2022/12/01 10:36:40;;;;;;;0.10;0.10;;;5.20;99.90;;;;;;5062405;28;20683;-83
2022/12/01 10:39:06;;;;;;;0.10;0.10;;;5.30;99.90;;;;;;5062204;28;20177;-82
2022/12/01 10:41:36;;;;;;;0.10;0.10;;;5.30;99.90;;;;;;5062216;28;20883;-81
2022/12/01 10:44:04;;;;;;;0.10;0.10;;;5.20;99.90;;;;;;5062548;28;20256;-81
2022/12/01 10:46:54;;;;;;;0.10;0.10;;;5.20;99.90;;;;;;5063016;28;20211;-81
2022/12/01 10:49:32;;;;;;;0.00;0.00;;;5.30;99.90;;;;;;5056994;28;20216;-82
2022/12/01 10:51:58;;;;;;;0.00;0.00;;;5.30;99.90;;;;;;5063184;28;20185;-82
2022/12/01 10:54:39;;;;;;;0.10;0.10;;;5.40;99.90;;;;;;5064974;28;20277;-81
2022/12/01 10:57:12;;;;;;;0.10;0.10;;;5.30;99.90;;;;;;5079651;28;20183;-81
2022/12/01 11:00:07;;;;;;;0.10;0.10;;;5.40;99.90;;;;;;5064521;28;20203;-81
2022/12/01 11:02:34;;;;;;;0.10;0.10;;;5.30;99.90;;;;;;5063432;28;20177;-82
2022/12/01 11:05:06;;;;;;;0.03;0.03;;;5.30;99.90;;;;;;5062073;28;20323;-82
2022/12/01 11:07:42;;;;;;;0.10;0.10;;;5.30;99.90;;;;;;5058210;28;20176;-81
2022/12/01 11:10:16;;;;;;;0.10;0.10;;;5.30;99.90;;;;;;5062657;28;20188;-81
2022/12/01 11:12:44;;;;;;;0.10;0.10;;;5.60;99.90;;;;;;5062522;28;20196;-81
2022/12/01 11:15:36;;;;;;;0.10;0.10;;;5.60;99.90;;;;;;5062515;28;20205;-81
2022/12/01 11:18:05;;;;;;;0.10;0.10;;;5.60;99.90;;;;;;5061630;28;20227;-81
2022/12/01 11:20:34;;;;;;;0.10;0.10;;;5.40;99.90;;;;;;5062442;28;20189;-81
2022/12/01 11:23:27;;;;;;;0.00;0.00;;;5.50;99.90;;;;;;5062298;28;20220;-81
2022/12/01 11:26:13;;;;;;;0.10;0.10;;;5.40;99.90;;;;;;5060135;28;20242;-81
2022/12/01 11:28:50;;;;;;;0.10;0.10;;;5.40;99.90;;;;;;5058149;28;20188;-84
2022/12/01 11:31:17;;;;;;;0.10;0.10;;;5.50;99.90;;;;;;5059917;28;20485;-82
2022/12/01 11:33:53;;;;;;;0.10;0.10;;;5.60;99.90;;;;;;5057065;28;20204;-83
2022/12/01 11:36:41;;;;;;;0.10;0.10;;;5.50;99.90;;;;;;5049445;28;20242;-81
2022/12/01 11:39:26;;;;;;;0.10;0.10;;;5.60;99.90;;;;;;5048177;28;21889;-81
2022/12/01 11:41:58;;;;;;;0.00;0.00;;;5.70;99.90;;;;;;5046586;28;20184;-81
2022/12/01 11:44:24;;;;;;;0.10;0.10;;;5.90;99.90;;;;;;5062023;28;20265;-81
2022/12/01 11:46:49;;;;;;;0.10;0.10;;;5.70;99.90;;;;;;5061845;28;20223;-81
2022/12/01 11:49:19;;;;;;;0.10;0.10;;;5.50;99.90;;;;;;5061701;28;20216;-81
2022/12/01 11:51:45;;;;;;;0.10;0.10;;;5.40;99.90;;;;;;5061011;28;20189;-80
2022/12/01 11:54:15;;;;;;;0.10;0.10;;;5.40;99.90;;;;;;5062208;28;20211;-80
2022/12/01 11:56:43;;;;;;;0.10;0.10;;;5.30;99.90;;;;;;5063633;28;20749;-80
2022/12/01 11:59:25;;;;;;;0.10;0.10;;;5.40;99.90;;;;;;5064236;28;20184;-80
2022/12/01 12:02:10;;;;;;;0.10;0.10;;;5.50;99.90;;;;;;5066102;28;20180;-80
2022/12/01 12:05:00;;;;;;;0.10;0.10;;;5.50;99.90;;;;;;5067368;28;20208;-80
2022/12/01 12:07:52;;;;;;;0.03;0.03;;;5.50;99.90;;;;;;5068142;28;20193;-80
2022/12/01 12:10:38;;;;;;;0.00;0.00;;;5.50;99.90;;;;;;5067265;28;20197;-79
2022/12/01 12:13:34;;;;;;;0.10;0.10;;;5.50;99.90;;;;;;5069920;28;20236;-80
2022/12/01 12:16:25;;;;;;;0.10;0.10;;;5.60;99.90;;;;;;5067206;28;20209;-79
2022/12/01 12:19:20;;;;;;;0.10;0.10;;;5.60;99.90;;;;;;5065625;28;20589;-80
2022/12/01 12:22:06;;;;;;;0.10;0.10;;;5.70;99.90;;;;;;5067674;28;20184;-80
2022/12/01 12:25:06;;;;;;;0.10;0.10;;;5.60;99.90;;;;;;5067763;28;20206;-80
2022/12/01 12:27:52;;;;;;;0.10;0.10;;;5.70;99.90;;;;;;5066960;28;20564;-80
2022/12/01 12:30:28;;;;;;;0.10;0.10;;;5.60;99.90;;;;;;5066442;28;20609;-80
2022/12/01 12:33:08;;;;;;;0.10;0.10;;;5.70;99.90;;;;;;5068009;28;20196;-80
2022/12/01 12:35:57;;;;;;;0.10;0.10;;;5.80;99.90;;;;;;5065850;28;20205;-80
2022/12/01 12:38:43;;;;;;;0.10;0.10;;;5.70;99.90;;;;;;5063523;28;20263;-80
2022/12/01 12:41:34;;;;;;;0.10;0.10;;;5.70;99.90;;;;;;5059901;28;20283;-83
2022/12/01 12:43:59;;;;;;;0.10;0.10;;;5.70;99.90;;;;;;5062846;28;20545;-80
2022/12/01 12:46:46;;;;;;;0.10;0.10;;;5.90;99.90;;;;;;5065451;28;20261;-80
2022/12/01 12:49:27;;;;;;;0.10;0.10;;;6.00;99.90;;;;;;5065406;28;20181;-80
2022/12/01 12:52:01;;;;;;;0.10;0.10;;;5.90;99.90;;;;;;5065557;28;20192;-80
2022/12/01 12:54:50;;;;;;;0.03;0.03;;;5.90;99.90;;;;;;5066826;28;20300;-80
2022/12/01 12:57:45;;;;;;;0.10;0.10;;;5.80;99.90;;;;;;5064728;28;20172;-80
2022/12/01 13:00:19;;;;;;;0.10;0.10;;;6.20;99.90;;;;;;5061499;28;20204;-80
2022/12/01 13:03:04;;;;;;;0.10;0.10;;;6.00;99.90;;;;;;5063378;28;20192;-80
2022/12/01 13:05:39;;;;;;;0.10;0.10;;;5.90;99.90;;;;;;5062801;28;20201;-80
2022/12/01 13:08:04;;;;;;;0.10;0.10;;;6.00;99.90;;;;;;5063167;28;20289;-80
2022/12/01 13:10:45;;;;;;;0.10;0.10;;;6.00;99.90;;;;;;5063011;28;21053;-80
2022/12/01 13:13:36;;;;;;;0.10;0.10;;;6.00;99.90;;;;;;5063822;28;20215;-80
2022/12/01 13:16:04;;;;;;;0.00;0.00;;;5.80;99.90;;;;;;5062369;28;20200;-84
2022/12/01 13:18:39;;;;;;;0.10;0.10;;;6.00;99.90;;;;;;5063790;28;20208;-83
2022/12/01 13:21:06;;;;;;;0.10;0.10;;;6.00;99.90;;;;;;5061759;28;20723;-84
2022/12/01 13:23:37;;;;;;;0.10;0.10;;;6.10;99.90;;;;;;5062468;28;20794;-85